sensor_id;sensor_type;location;lat;lon;timestamp;temperature;humidity
51884;DHT22;37915;53.254;6.598;2023-10-09T00:00:16;14.00;99.90
51884;DHT22;37915;53.254;6.598;2023-10-09T00:03:02;14.00;99.90
51884;DHT22;37915;53.254;6.598;2023-10-09T00:05:29;14.10;99.90
51884;DHT22;37915;53.254;6.598;2023-10-09T00:08:14;14.10;99.90
51884;DHT22;37915;53.254;6.598;2023-10-09T00:10:46;14.00;99.90
51884;DHT22;37915;53.254;6.598;2023-10-09T00:13:19;14.10;99.90
51884;DHT22;37915;53.254;6.598;2023-10-09T00:15:45;14.00;99.90
51884;DHT22;37915;53.254;6.598;2023-10-09T00:18:18;13.90;99.90
51884;DHT22;37915;53.254;6.598;2023-10-09T00:20:48;14.00;99.90
51884;DHT22;37915;53.254;6.598;2023-10-09T00:23:19;14.10;99.90
51884;DHT22;37915;53.254;6.598;2023-10-09T00:25:52;14.00;99.90
51884;DHT22;37915;53.254;6.598;2023-10-09T00:28:42;14.00;99.90
51884;DHT22;37915;53.254;6.598;2023-10-09T00:31:10;14.00;99.90
51884;DHT22;37915;53.254;6.598;2023-10-09T00:33:44;13.90;99.90
51884;DHT22;37915;53.254;6.598;2023-10-09T00:36:10;14.00;99.90
51884;DHT22;37915;53.254;6.598;2023-10-09T00:38:37;14.00;99.90
51884;DHT22;37915;53.254;6.598;2023-10-09T00:41:10;14.10;99.90
51884;DHT22;37915;53.254;6.598;2023-10-09T00:43:38;14.10;99.90
51884;DHT22;37915;53.254;6.598;2023-10-09T00:46:08;14.00;99.90
51884;DHT22;37915;53.254;6.598;2023-10-09T00:48:48;14.00;99.90
51884;DHT22;37915;53.254;6.598;2023-10-09T00:51:16;14.30;99.90
51884;DHT22;37915;53.254;6.598;2023-10-09T00:53:46;14.10;99.90
51884;DHT22;37915;53.254;6.598;2023-10-09T00:56:23;14.10;99.90
51884;DHT22;37915;53.254;6.598;2023-10-09T00:59:01;14.20;99.90
51884;DHT22;37915;53.254;6.598;2023-10-09T01:01:33;14.00;99.90
51884;DHT22;37915;53.254;6.598;2023-10-09T01:04:04;14.10;99.90
51884;DHT22;37915;53.254;6.598;2023-10-09T01:06:38;14.00;99.90
51884;DHT22;37915;53.254;6.598;2023-10-09T01:09:13;14.00;99.90
51884;DHT22;37915;53.254;6.598;2023-10-09T01:11:40;14.10;99.90
51884;DHT22;37915;53.254;6.598;2023-10-09T01:14:24;14.10;99.90
51884;DHT22;37915;53.254;6.598;2023-10-09T01:16:50;14.10;99.90
51884;DHT22;37915;53.254;6.598;2023-10-09T01:19:19;14.00;99.90
51884;DHT22;37915;53.254;6.598;2023-10-09T01:21:53;13.90;99.90
51884;DHT22;37915;53.254;6.598;2023-10-09T01:24:20;14.10;99.90
51884;DHT22;37915;53.254;6.598;2023-10-09T01:26:48;14.10;99.90
51884;DHT22;37915;53.254;6.598;2023-10-09T01:29:22;14.00;99.90
51884;DHT22;37915;53.254;6.598;2023-10-09T01:31:54;14.10;99.90
51884;DHT22;37915;53.254;6.598;2023-10-09T01:34:34;14.30;99.90
51884;DHT22;37915;53.254;6.598;2023-10-09T01:37:12;14.20;99.90
51884;DHT22;37915;53.254;6.598;2023-10-09T01:39:59;14.20;99.90
51884;DHT22;37915;53.254;6.598;2023-10-09T01:42:41;14.10;99.90
51884;DHT22;37915;53.254;6.598;2023-10-09T01:45:13;14.20;99.90
51884;DHT22;37915;53.254;6.598;2023-10-09T01:47:55;14.10;99.90
51884;DHT22;37915;53.254;6.598;2023-10-09T01:50:21;14.20;99.90
51884;DHT22;37915;53.254;6.598;2023-10-09T01:52:50;14.10;99.90
51884;DHT22;37915;53.254;6.598;2023-10-09T01:55:19;14.20;99.90
51884;DHT22;37915;53.254;6.598;2023-10-09T01:58:06;14.10;99.90
51884;DHT22;37915;53.254;6.598;2023-10-09T02:00:42;14.10;99.90
51884;DHT22;37915;53.254;6.598;2023-10-09T02:03:14;14.20;99.90
51884;DHT22;37915;53.254;6.598;2023-10-09T02:05:43;14.20;99.90
51884;DHT22;37915;53.254;6.598;2023-10-09T02:08:09;14.20;99.90
51884;DHT22;37915;53.254;6.598;2023-10-09T02:10:36;14.30;99.90
51884;DHT22;37915;53.254;6.598;2023-10-09T02:13:05;14.10;99.90
51884;DHT22;37915;53.254;6.598;2023-10-09T02:15:39;14.20;99.90
51884;DHT22;37915;53.254;6.598;2023-10-09T02:18:15;14.30;99.90
51884;DHT22;37915;53.254;6.598;2023-10-09T02:23:25;14.30;99.90
51884;DHT22;37915;53.254;6.598;2023-10-09T02:25:56;14.20;99.90
51884;DHT22;37915;53.254;6.598;2023-10-09T02:28:23;14.30;99.90
51884;DHT22;37915;53.254;6.598;2023-10-09T02:30:48;14.10;99.90
51884;DHT22;37915;53.254;6.598;2023-10-09T02:33:15;14.20;99.90
51884;DHT22;37915;53.254;6.598;2023-10-09T02:35:53;14.30;99.90
51884;DHT22;37915;53.254;6.598;2023-10-09T02:38:20;14.30;99.90
51884;DHT22;37915;53.254;6.598;2023-10-09T02:40:52;14.40;99.90
51884;DHT22;37915;53.254;6.598;2023-10-09T02:43:34;14.10;99.90
51884;DHT22;37915;53.254;6.598;2023-10-09T02:46:14;14.10;99.90
51884;DHT22;37915;53.254;6.598;2023-10-09T02:48:43;14.00;99.90
51884;DHT22;37915;53.254;6.598;2023-10-09T02:51:11;14.40;99.90
51884;DHT22;37915;53.254;6.598;2023-10-09T02:53:46;14.00;99.90
51884;DHT22;37915;53.254;6.598;2023-10-09T02:56:15;14.30;99.90
51884;DHT22;37915;53.254;6.598;2023-10-09T02:58:43;14.20;99.90
51884;DHT22;37915;53.254;6.598;2023-10-09T03:01:11;14.20;99.90
51884;DHT22;37915;53.254;6.598;2023-10-09T03:03:40;14.30;99.90
51884;DHT22;37915;53.254;6.598;2023-10-09T03:06:06;14.10;99.90
51884;DHT22;37915;53.254;6.598;2023-10-09T03:08:37;14.20;99.90
51884;DHT22;37915;53.254;6.598;2023-10-09T03:11:03;14.20;99.90
51884;DHT22;37915;53.254;6.598;2023-10-09T03:13:32;14.40;99.90
51884;DHT22;37915;53.254;6.598;2023-10-09T03:15:59;14.20;99.90
51884;DHT22;37915;53.254;6.598;2023-10-09T03:18:24;14.10;99.90
51884;DHT22;37915;53.254;6.598;2023-10-09T03:20:50;14.30;99.90
51884;DHT22;37915;53.254;6.598;2023-10-09T03:23:16;14.20;99.90
51884;DHT22;37915;53.254;6.598;2023-10-09T03:25:41;14.50;99.90
51884;DHT22;37915;53.254;6.598;2023-10-09T03:28:11;14.50;99.90
51884;DHT22;37915;53.254;6.598;2023-10-09T03:30:38;14.30;99.90
51884;DHT22;37915;53.254;6.598;2023-10-09T03:33:05;14.40;99.90
51884;DHT22;37915;53.254;6.598;2023-10-09T03:35:32;14.50;99.90
51884;DHT22;37915;53.254;6.598;2023-10-09T03:38:00;14.60;99.90
51884;DHT22;37915;53.254;6.598;2023-10-09T03:40:26;14.50;99.90
51884;DHT22;37915;53.254;6.598;2023-10-09T03:42:52;14.40;99.90
51884;DHT22;37915;53.254;6.598;2023-10-09T03:45:21;14.60;99.90
51884;DHT22;37915;53.254;6.598;2023-10-09T03:47:54;14.60;99.90
51884;DHT22;37915;53.254;6.598;2023-10-09T03:50:28;14.70;99.90
51884;DHT22;37915;53.254;6.598;2023-10-09T03:53:02;14.60;99.90
51884;DHT22;37915;53.254;6.598;2023-10-09T03:55:29;14.60;99.90
51884;DHT22;37915;53.254;6.598;2023-10-09T03:57:56;14.80;99.90
51884;DHT22;37915;53.254;6.598;2023-10-09T04:00:23;14.60;99.90
51884;DHT22;37915;53.254;6.598;2023-10-09T04:03:06;14.80;99.90
51884;DHT22;37915;53.254;6.598;2023-10-09T04:05:32;15.20;99.90
51884;DHT22;37915;53.254;6.598;2023-10-09T04:07:58;14.90;99.90
51884;DHT22;37915;53.254;6.598;2023-10-09T04:10:27;15.10;99.90
51884;DHT22;37915;53.254;6.598;2023-10-09T04:13:10;15.10;99.90
51884;DHT22;37915;53.254;6.598;2023-10-09T04:15:42;15.20;99.90
51884;DHT22;37915;53.254;6.598;2023-10-09T04:18:08;15.40;99.90
51884;DHT22;37915;53.254;6.598;2023-10-09T04:20:41;15.10;99.90
51884;DHT22;37915;53.254;6.598;2023-10-09T04:23:25;15.30;99.90
51884;DHT22;37915;53.254;6.598;2023-10-09T04:26:01;15.20;99.90
51884;DHT22;37915;53.254;6.598;2023-10-09T04:28:39;15.60;99.90
51884;DHT22;37915;53.254;6.598;2023-10-09T04:31:07;15.50;99.90
51884;DHT22;37915;53.254;6.598;2023-10-09T04:33:34;15.60;99.90
51884;DHT22;37915;53.254;6.598;2023-10-09T04:36:07;15.50;99.90
51884;DHT22;37915;53.254;6.598;2023-10-09T04:38:53;15.50;99.90
51884;DHT22;37915;53.254;6.598;2023-10-09T04:41:27;15.60;99.90
51884;DHT22;37915;53.254;6.598;2023-10-09T04:43:56;15.50;99.90
51884;DHT22;37915;53.254;6.598;2023-10-09T04:46:42;15.40;99.90
51884;DHT22;37915;53.254;6.598;2023-10-09T04:49:31;15.50;99.90
51884;DHT22;37915;53.254;6.598;2023-10-09T04:52:00;15.70;99.90
51884;DHT22;37915;53.254;6.598;2023-10-09T04:54:33;15.50;99.90
51884;DHT22;37915;53.254;6.598;2023-10-09T04:57:14;15.70;99.90
51884;DHT22;37915;53.254;6.598;2023-10-09T04:59:43;15.50;99.90
51884;DHT22;37915;53.254;6.598;2023-10-09T05:02:13;15.70;99.90
51884;DHT22;37915;53.254;6.598;2023-10-09T05:04:48;15.60;99.90
51884;DHT22;37915;53.254;6.598;2023-10-09T05:07:26;15.80;99.90
51884;DHT22;37915;53.254;6.598;2023-10-09T05:10:12;15.50;99.90
51884;DHT22;37915;53.254;6.598;2023-10-09T05:12:43;15.80;99.90
51884;DHT22;37915;53.254;6.598;2023-10-09T05:15:14;15.70;99.90
51884;DHT22;37915;53.254;6.598;2023-10-09T05:17:40;15.70;99.90
51884;DHT22;37915;53.254;6.598;2023-10-09T05:20:11;15.50;99.90
51884;DHT22;37915;53.254;6.598;2023-10-09T05:23:06;15.50;99.90
51884;DHT22;37915;53.254;6.598;2023-10-09T05:25:52;15.80;99.90
51884;DHT22;37915;53.254;6.598;2023-10-09T05:28:40;15.60;99.90
51884;DHT22;37915;53.254;6.598;2023-10-09T05:31:18;15.50;99.90
51884;DHT22;37915;53.254;6.598;2023-10-09T05:34:10;15.70;99.90
51884;DHT22;37915;53.254;6.598;2023-10-09T05:36:37;15.80;99.90
51884;DHT22;37915;53.254;6.598;2023-10-09T05:39:03;15.60;99.90
51884;DHT22;37915;53.254;6.598;2023-10-09T05:42:06;15.70;99.90
51884;DHT22;37915;53.254;6.598;2023-10-09T05:44:43;15.60;99.90
51884;DHT22;37915;53.254;6.598;2023-10-09T05:47:41;15.60;99.90
51884;DHT22;37915;53.254;6.598;2023-10-09T05:50:29;15.70;99.90
51884;DHT22;37915;53.254;6.598;2023-10-09T05:52:56;15.80;99.90
51884;DHT22;37915;53.254;6.598;2023-10-09T05:55:31;15.60;99.90
51884;DHT22;37915;53.254;6.598;2023-10-09T05:58:15;15.70;99.90
51884;DHT22;37915;53.254;6.598;2023-10-09T06:00:59;15.80;99.90
51884;DHT22;37915;53.254;6.598;2023-10-09T06:03:44;15.90;99.90
51884;DHT22;37915;53.254;6.598;2023-10-09T06:06:30;15.60;99.90
51884;DHT22;37915;53.254;6.598;2023-10-09T06:09:05;15.80;99.90
51884;DHT22;37915;53.254;6.598;2023-10-09T06:11:44;15.80;99.90
51884;DHT22;37915;53.254;6.598;2023-10-09T06:14:36;15.60;99.90
51884;DHT22;37915;53.254;6.598;2023-10-09T06:17:01;15.90;99.90
51884;DHT22;37915;53.254;6.598;2023-10-09T06:19:39;15.90;99.90
51884;DHT22;37915;53.254;6.598;2023-10-09T06:22:14;15.90;99.90
51884;DHT22;37915;53.254;6.598;2023-10-09T06:24:59;15.80;99.90
51884;DHT22;37915;53.254;6.598;2023-10-09T06:27:34;16.00;99.90
51884;DHT22;37915;53.254;6.598;2023-10-09T06:30:00;15.90;99.90
51884;DHT22;37915;53.254;6.598;2023-10-09T06:32:44;15.80;99.90
51884;DHT22;37915;53.254;6.598;2023-10-09T06:35:28;15.70;99.90
51884;DHT22;37915;53.254;6.598;2023-10-09T06:37:57;15.90;99.90
51884;DHT22;37915;53.254;6.598;2023-10-09T06:40:30;16.00;99.90
51884;DHT22;37915;53.254;6.598;2023-10-09T06:43:20;15.70;99.90
51884;DHT22;37915;53.254;6.598;2023-10-09T06:45:53;16.10;99.90
51884;DHT22;37915;53.254;6.598;2023-10-09T06:48:38;16.00;99.90
51884;DHT22;37915;53.254;6.598;2023-10-09T06:53:42;15.80;99.90
51884;DHT22;37915;53.254;6.598;2023-10-09T06:56:27;15.80;99.90
51884;DHT22;37915;53.254;6.598;2023-10-09T06:59:03;16.10;99.90
51884;DHT22;37915;53.254;6.598;2023-10-09T07:01:43;15.90;99.90
51884;DHT22;37915;53.254;6.598;2023-10-09T07:04:10;15.80;99.90
51884;DHT22;37915;53.254;6.598;2023-10-09T07:07:06;15.90;99.90
51884;DHT22;37915;53.254;6.598;2023-10-09T07:09:47;15.80;99.90
51884;DHT22;37915;53.254;6.598;2023-10-09T07:12:34;15.90;99.90
51884;DHT22;37915;53.254;6.598;2023-10-09T07:15:08;15.70;99.90
51884;DHT22;37915;53.254;6.598;2023-10-09T07:17:34;15.90;99.90
51884;DHT22;37915;53.254;6.598;2023-10-09T07:20:00;15.80;99.90
51884;DHT22;37915;53.254;6.598;2023-10-09T07:22:39;15.90;99.90
51884;DHT22;37915;53.254;6.598;2023-10-09T07:25:05;15.70;99.90
51884;DHT22;37915;53.254;6.598;2023-10-09T07:27:53;16.10;99.90
51884;DHT22;37915;53.254;6.598;2023-10-09T07:30:21;16.00;99.90
51884;DHT22;37915;53.254;6.598;2023-10-09T07:32:59;15.90;99.90
51884;DHT22;37915;53.254;6.598;2023-10-09T07:35:47;15.80;99.90
51884;DHT22;37915;53.254;6.598;2023-10-09T07:38:21;16.00;99.90
51884;DHT22;37915;53.254;6.598;2023-10-09T07:41:01;16.10;99.90
51884;DHT22;37915;53.254;6.598;2023-10-09T07:43:35;15.80;99.90
51884;DHT22;37915;53.254;6.598;2023-10-09T07:46:14;16.00;99.90
51884;DHT22;37915;53.254;6.598;2023-10-09T07:49:07;16.10;99.90
51884;DHT22;37915;53.254;6.598;2023-10-09T07:51:41;15.90;99.90
51884;DHT22;37915;53.254;6.598;2023-10-09T07:54:13;16.10;99.90
51884;DHT22;37915;53.254;6.598;2023-10-09T07:56:57;16.10;99.90
51884;DHT22;37915;53.254;6.598;2023-10-09T07:59:37;15.80;99.90
51884;DHT22;37915;53.254;6.598;2023-10-09T08:02:07;15.80;99.90
51884;DHT22;37915;53.254;6.598;2023-10-09T08:04:39;16.00;99.90
51884;DHT22;37915;53.254;6.598;2023-10-09T08:07:14;16.10;99.90
51884;DHT22;37915;53.254;6.598;2023-10-09T08:09:56;15.90;99.90
51884;DHT22;37915;53.254;6.598;2023-10-09T08:12:42;16.10;99.90
51884;DHT22;37915;53.254;6.598;2023-10-09T08:15:17;15.90;99.90
51884;DHT22;37915;53.254;6.598;2023-10-09T08:17:53;16.00;99.90
51884;DHT22;37915;53.254;6.598;2023-10-09T08:20:27;16.10;99.90
51884;DHT22;37915;53.254;6.598;2023-10-09T08:22:54;16.00;99.90
51884;DHT22;37915;53.254;6.598;2023-10-09T08:25:23;15.90;99.90
51884;DHT22;37915;53.254;6.598;2023-10-09T08:27:56;16.00;99.90
51884;DHT22;37915;53.254;6.598;2023-10-09T08:30:45;16.10;99.90
51884;DHT22;37915;53.254;6.598;2023-10-09T08:33:20;16.10;99.90
51884;DHT22;37915;53.254;6.598;2023-10-09T08:35:53;16.00;99.90
51884;DHT22;37915;53.254;6.598;2023-10-09T08:38:21;16.20;99.90
51884;DHT22;37915;53.254;6.598;2023-10-09T08:40:53;16.10;99.90
51884;DHT22;37915;53.254;6.598;2023-10-09T08:43:23;16.20;99.90
51884;DHT22;37915;53.254;6.598;2023-10-09T08:45:56;16.20;99.90
51884;DHT22;37915;53.254;6.598;2023-10-09T08:48:28;16.10;99.90
51884;DHT22;37915;53.254;6.598;2023-10-09T08:50:56;16.00;99.90
51884;DHT22;37915;53.254;6.598;2023-10-09T08:53:24;16.20;99.90
51884;DHT22;37915;53.254;6.598;2023-10-09T08:55:53;16.20;99.90
51884;DHT22;37915;53.254;6.598;2023-10-09T08:58:19;16.20;99.90
51884;DHT22;37915;53.254;6.598;2023-10-09T09:00:49;16.30;99.90
51884;DHT22;37915;53.254;6.598;2023-10-09T09:03:16;16.30;99.90
51884;DHT22;37915;53.254;6.598;2023-10-09T09:06:01;16.10;99.90
51884;DHT22;37915;53.254;6.598;2023-10-09T09:08:29;16.10;99.90
51884;DHT22;37915;53.254;6.598;2023-10-09T09:11:17;16.30;99.90
51884;DHT22;37915;53.254;6.598;2023-10-09T09:14:02;16.20;99.90
51884;DHT22;37915;53.254;6.598;2023-10-09T09:16:32;16.40;99.90
51884;DHT22;37915;53.254;6.598;2023-10-09T09:19:04;16.20;99.90
51884;DHT22;37915;53.254;6.598;2023-10-09T09:21:42;16.30;99.90
51884;DHT22;37915;53.254;6.598;2023-10-09T09:24:13;16.40;99.90
51884;DHT22;37915;53.254;6.598;2023-10-09T09:26:42;16.40;99.90
51884;DHT22;37915;53.254;6.598;2023-10-09T09:29:15;16.20;99.90
51884;DHT22;37915;53.254;6.598;2023-10-09T09:31:56;17.10;99.90
51884;DHT22;37915;53.254;6.598;2023-10-09T09:34:23;16.40;99.90
51884;DHT22;37915;53.254;6.598;2023-10-09T09:36:58;16.30;99.90
51884;DHT22;37915;53.254;6.598;2023-10-09T09:39:27;16.30;99.90
51884;DHT22;37915;53.254;6.598;2023-10-09T09:41:58;16.50;99.90
51884;DHT22;37915;53.254;6.598;2023-10-09T09:44:33;16.40;99.90
51884;DHT22;37915;53.254;6.598;2023-10-09T09:47:00;16.70;99.90
51884;DHT22;37915;53.254;6.598;2023-10-09T09:49:30;16.50;99.90
51884;DHT22;37915;53.254;6.598;2023-10-09T09:52:01;16.40;99.90
51884;DHT22;37915;53.254;6.598;2023-10-09T09:54:38;16.50;99.90
51884;DHT22;37915;53.254;6.598;2023-10-09T09:57:07;16.60;99.90
51884;DHT22;37915;53.254;6.598;2023-10-09T09:59:40;16.40;99.90
51884;DHT22;37915;53.254;6.598;2023-10-09T10:02:09;16.60;99.90
51884;DHT22;37915;53.254;6.598;2023-10-09T10:04:39;16.60;99.90
51884;DHT22;37915;53.254;6.598;2023-10-09T10:07:06;16.50;99.90
51884;DHT22;37915;53.254;6.598;2023-10-09T10:09:42;16.90;99.90
51884;DHT22;37915;53.254;6.598;2023-10-09T10:12:11;16.70;99.90
51884;DHT22;37915;53.254;6.598;2023-10-09T10:14:53;16.70;99.90
51884;DHT22;37915;53.254;6.598;2023-10-09T10:17:22;16.50;99.90
51884;DHT22;37915;53.254;6.598;2023-10-09T10:22:26;16.90;99.90
51884;DHT22;37915;53.254;6.598;2023-10-09T10:24:53;16.60;99.90
51884;DHT22;37915;53.254;6.598;2023-10-09T10:27:25;16.70;99.90
51884;DHT22;37915;53.254;6.598;2023-10-09T10:32:54;16.50;99.90
51884;DHT22;37915;53.254;6.598;2023-10-09T10:35:24;16.70;99.90
51884;DHT22;37915;53.254;6.598;2023-10-09T10:38:31;16.70;99.90
51884;DHT22;37915;53.254;6.598;2023-10-09T10:41:18;16.90;99.90
51884;DHT22;37915;53.254;6.598;2023-10-09T10:43:48;16.60;99.90
51884;DHT22;37915;53.254;6.598;2023-10-09T10:46:15;16.80;99.90
51884;DHT22;37915;53.254;6.598;2023-10-09T10:48:42;16.70;99.90
51884;DHT22;37915;53.254;6.598;2023-10-09T10:51:13;16.90;99.90
51884;DHT22;37915;53.254;6.598;2023-10-09T10:53:51;16.70;99.90
51884;DHT22;37915;53.254;6.598;2023-10-09T10:56:18;16.70;99.90
51884;DHT22;37915;53.254;6.598;2023-10-09T10:58:54;16.70;99.90
51884;DHT22;37915;53.254;6.598;2023-10-09T11:01:40;16.60;99.90
51884;DHT22;37915;53.254;6.598;2023-10-09T11:04:26;16.60;99.90
51884;DHT22;37915;53.254;6.598;2023-10-09T11:06:58;16.80;99.90
51884;DHT22;37915;53.254;6.598;2023-10-09T11:09:56;16.90;99.90
51884;DHT22;37915;53.254;6.598;2023-10-09T11:15:12;16.80;99.90
51884;DHT22;37915;53.254;6.598;2023-10-09T11:18:06;16.70;99.90
51884;DHT22;37915;53.254;6.598;2023-10-09T11:20:37;16.70;99.90
51884;DHT22;37915;53.254;6.598;2023-10-09T11:23:04;16.60;99.90
51884;DHT22;37915;53.254;6.598;2023-10-09T11:25:45;16.80;99.90
51884;DHT22;37915;53.254;6.598;2023-10-09T11:28:33;16.70;99.90
51884;DHT22;37915;53.254;6.598;2023-10-09T11:31:12;16.70;99.90
51884;DHT22;37915;53.254;6.598;2023-10-09T11:33:48;16.50;99.90
51884;DHT22;37915;53.254;6.598;2023-10-09T11:36:18;16.60;99.90
51884;DHT22;37915;53.254;6.598;2023-10-09T11:39:00;16.60;99.90
51884;DHT22;37915;53.254;6.598;2023-10-09T11:41:48;16.60;99.90
51884;DHT22;37915;53.254;6.598;2023-10-09T11:44:43;16.70;99.90
51884;DHT22;37915;53.254;6.598;2023-10-09T11:47:20;16.90;99.90
51884;DHT22;37915;53.254;6.598;2023-10-09T11:49:56;16.80;99.90
51884;DHT22;37915;53.254;6.598;2023-10-09T11:52:55;17.00;99.90
51884;DHT22;37915;53.254;6.598;2023-10-09T11:55:41;16.80;99.90
51884;DHT22;37915;53.254;6.598;2023-10-09T11:58:07;16.90;99.90
51884;DHT22;37915;53.254;6.598;2023-10-09T12:00:34;16.80;99.90
51884;DHT22;37915;53.254;6.598;2023-10-09T12:03:10;16.90;99.90
51884;DHT22;37915;53.254;6.598;2023-10-09T12:05:36;16.80;99.90
51884;DHT22;37915;53.254;6.598;2023-10-09T12:08:03;16.90;99.90
51884;DHT22;37915;53.254;6.598;2023-10-09T12:10:34;17.10;99.90
51884;DHT22;37915;53.254;6.598;2023-10-09T12:13:05;17.00;99.90
51884;DHT22;37915;53.254;6.598;2023-10-09T12:15:32;16.70;99.90
51884;DHT22;37915;53.254;6.598;2023-10-09T12:18:12;16.90;99.90
51884;DHT22;37915;53.254;6.598;2023-10-09T12:20:42;16.80;99.90
51884;DHT22;37915;53.254;6.598;2023-10-09T12:23:07;16.90;99.90
51884;DHT22;37915;53.254;6.598;2023-10-09T12:25:34;16.90;99.90
51884;DHT22;37915;53.254;6.598;2023-10-09T12:28:02;16.80;99.90
51884;DHT22;37915;53.254;6.598;2023-10-09T12:30:31;16.90;99.90
51884;DHT22;37915;53.254;6.598;2023-10-09T12:33:04;16.90;99.90
51884;DHT22;37915;53.254;6.598;2023-10-09T12:35:30;16.90;99.90
51884;DHT22;37915;53.254;6.598;2023-10-09T12:37:59;17.10;99.90
51884;DHT22;37915;53.254;6.598;2023-10-09T12:40:26;17.10;99.90
51884;DHT22;37915;53.254;6.598;2023-10-09T12:42:57;17.00;99.90
51884;DHT22;37915;53.254;6.598;2023-10-09T12:45:25;16.90;99.90
51884;DHT22;37915;53.254;6.598;2023-10-09T12:47:58;17.10;99.90
51884;DHT22;37915;53.254;6.598;2023-10-09T12:50:25;16.90;99.90
51884;DHT22;37915;53.254;6.598;2023-10-09T12:52:56;17.00;99.90
51884;DHT22;37915;53.254;6.598;2023-10-09T12:55:23;16.80;99.90
51884;DHT22;37915;53.254;6.598;2023-10-09T12:58:00;16.90;99.90
51884;DHT22;37915;53.254;6.598;2023-10-09T13:00:35;17.00;99.90
51884;DHT22;37915;53.254;6.598;2023-10-09T13:03:05;17.00;99.90
51884;DHT22;37915;53.254;6.598;2023-10-09T13:05:52;17.00;99.90
51884;DHT22;37915;53.254;6.598;2023-10-09T13:08:19;16.80;99.90
51884;DHT22;37915;53.254;6.598;2023-10-09T13:10:51;17.10;99.90
51884;DHT22;37915;53.254;6.598;2023-10-09T13:13:25;17.00;99.90
51884;DHT22;37915;53.254;6.598;2023-10-09T13:16:02;16.80;99.90
51884;DHT22;37915;53.254;6.598;2023-10-09T13:18:32;16.90;99.90
51884;DHT22;37915;53.254;6.598;2023-10-09T13:20:57;16.90;99.90
51884;DHT22;37915;53.254;6.598;2023-10-09T13:23:23;17.00;99.90
51884;DHT22;37915;53.254;6.598;2023-10-09T13:25:53;16.90;99.90
51884;DHT22;37915;53.254;6.598;2023-10-09T13:28:18;17.00;99.90
51884;DHT22;37915;53.254;6.598;2023-10-09T13:30:46;16.90;99.90
51884;DHT22;37915;53.254;6.598;2023-10-09T13:33:16;16.80;99.90
51884;DHT22;37915;53.254;6.598;2023-10-09T13:35:42;16.80;99.90
51884;DHT22;37915;53.254;6.598;2023-10-09T13:38:16;16.60;99.90
51884;DHT22;37915;53.254;6.598;2023-10-09T13:40:42;16.60;99.90
51884;DHT22;37915;53.254;6.598;2023-10-09T13:43:08;16.90;99.90
51884;DHT22;37915;53.254;6.598;2023-10-09T13:45:41;16.90;99.90
51884;DHT22;37915;53.254;6.598;2023-10-09T13:48:14;16.90;99.90
51884;DHT22;37915;53.254;6.598;2023-10-09T13:50:43;16.70;99.90
51884;DHT22;37915;53.254;6.598;2023-10-09T13:53:09;16.90;99.90
51884;DHT22;37915;53.254;6.598;2023-10-09T13:55:37;16.80;99.90
51884;DHT22;37915;53.254;6.598;2023-10-09T13:58:10;16.70;99.90
51884;DHT22;37915;53.254;6.598;2023-10-09T14:00:39;16.80;99.90
51884;DHT22;37915;53.254;6.598;2023-10-09T14:03:08;16.60;99.90
51884;DHT22;37915;53.254;6.598;2023-10-09T14:05:38;16.50;99.90
51884;DHT22;37915;53.254;6.598;2023-10-09T14:08:14;16.60;99.90
51884;DHT22;37915;53.254;6.598;2023-10-09T14:10:41;16.80;99.90
51884;DHT22;37915;53.254;6.598;2023-10-09T14:13:07;16.40;99.90
51884;DHT22;37915;53.254;6.598;2023-10-09T14:15:38;16.50;99.90
51884;DHT22;37915;53.254;6.598;2023-10-09T14:18:07;16.80;99.90
51884;DHT22;37915;53.254;6.598;2023-10-09T14:20:34;16.50;99.90
51884;DHT22;37915;53.254;6.598;2023-10-09T14:23:01;16.70;99.90
51884;DHT22;37915;53.254;6.598;2023-10-09T14:25:34;16.80;99.90
51884;DHT22;37915;53.254;6.598;2023-10-09T14:28:08;16.80;99.90
51884;DHT22;37915;53.254;6.598;2023-10-09T14:30:38;16.60;99.90
51884;DHT22;37915;53.254;6.598;2023-10-09T14:33:13;16.90;99.90
51884;DHT22;37915;53.254;6.598;2023-10-09T14:35:44;17.00;99.90
51884;DHT22;37915;53.254;6.598;2023-10-09T14:38:10;16.90;99.90
51884;DHT22;37915;53.254;6.598;2023-10-09T14:40:44;16.60;99.90
51884;DHT22;37915;53.254;6.598;2023-10-09T14:43:11;16.60;99.90
51884;DHT22;37915;53.254;6.598;2023-10-09T14:45:47;16.80;99.90
51884;DHT22;37915;53.254;6.598;2023-10-09T14:48:15;16.70;99.90
51884;DHT22;37915;53.254;6.598;2023-10-09T14:50:50;16.80;99.90
51884;DHT22;37915;53.254;6.598;2023-10-09T14:53:22;16.60;99.90
51884;DHT22;37915;53.254;6.598;2023-10-09T14:55:58;16.80;99.90
51884;DHT22;37915;53.254;6.598;2023-10-09T14:58:27;16.80;99.90
51884;DHT22;37915;53.254;6.598;2023-10-09T15:00:55;16.90;99.90
51884;DHT22;37915;53.254;6.598;2023-10-09T15:03:21;16.80;99.90
51884;DHT22;37915;53.254;6.598;2023-10-09T15:05:48;16.70;99.90
51884;DHT22;37915;53.254;6.598;2023-10-09T15:08:14;16.80;99.90
51884;DHT22;37915;53.254;6.598;2023-10-09T15:10:50;16.70;99.90
51884;DHT22;37915;53.254;6.598;2023-10-09T15:13:22;16.70;99.90
51884;DHT22;37915;53.254;6.598;2023-10-09T15:15:54;16.90;99.90
51884;DHT22;37915;53.254;6.598;2023-10-09T15:18:21;16.80;99.90
51884;DHT22;37915;53.254;6.598;2023-10-09T15:20:48;16.70;99.90
51884;DHT22;37915;53.254;6.598;2023-10-09T15:23:14;16.80;99.90
51884;DHT22;37915;53.254;6.598;2023-10-09T15:25:40;16.60;99.90
51884;DHT22;37915;53.254;6.598;2023-10-09T15:28:11;16.60;99.90
51884;DHT22;37915;53.254;6.598;2023-10-09T15:30:38;16.70;99.90
51884;DHT22;37915;53.254;6.598;2023-10-09T15:33:10;16.60;99.90
51884;DHT22;37915;53.254;6.598;2023-10-09T15:35:37;16.70;99.90
51884;DHT22;37915;53.254;6.598;2023-10-09T15:38:04;16.60;99.90
51884;DHT22;37915;53.254;6.598;2023-10-09T15:40:33;16.50;99.90
51884;DHT22;37915;53.254;6.598;2023-10-09T15:43:03;16.70;99.90
51884;DHT22;37915;53.254;6.598;2023-10-09T15:45:31;16.50;99.90
51884;DHT22;37915;53.254;6.598;2023-10-09T15:47:58;16.60;99.90
51884;DHT22;37915;53.254;6.598;2023-10-09T15:50:29;16.70;99.90
51884;DHT22;37915;53.254;6.598;2023-10-09T15:52:59;16.80;99.90
51884;DHT22;37915;53.254;6.598;2023-10-09T15:55:25;16.40;99.90
51884;DHT22;37915;53.254;6.598;2023-10-09T15:57:51;16.40;99.90
51884;DHT22;37915;53.254;6.598;2023-10-09T16:00:21;16.40;99.90
51884;DHT22;37915;53.254;6.598;2023-10-09T16:02:48;16.50;99.90
51884;DHT22;37915;53.254;6.598;2023-10-09T16:05:15;16.50;99.90
51884;DHT22;37915;53.254;6.598;2023-10-09T16:07:42;16.60;99.90
51884;DHT22;37915;53.254;6.598;2023-10-09T16:10:09;16.60;99.90
51884;DHT22;37915;53.254;6.598;2023-10-09T16:12:39;16.30;99.90
51884;DHT22;37915;53.254;6.598;2023-10-09T16:15:05;16.40;99.90
51884;DHT22;37915;53.254;6.598;2023-10-09T16:17:35;16.10;99.90
51884;DHT22;37915;53.254;6.598;2023-10-09T16:20:03;16.60;99.90